Terminal Aerodrome Forecast
Issued by NWS

Home | Current Version | Previous Version | Text Only | Print | Product List | Glossary On
Versions: 1 2 3 4 5 6 7 8 9 10 11 12 13 14 15 16 17 18
000
FTUS41 KAKQ 152300
TAFPHF
TAF
KPHF 152337Z 1600/1624 VRB05KT P6SM OVC030
     FM160500 21005KT P6SM BKN020 OVC050
     FM161000 25005KT P6SM OVC015
     FM161400 32006KT P6SM SCT015 BKN030
     FM161600 35008KT P6SM FEW020 SCT080=

USA.gov is the U.S. government's official web portal to all federal, state and local government web resources and services.